Terminal Aerodrome Forecast
Issued by NWS Blacksburg, VA

Home | Current Version | Previous Version | Text Only | Print | Product List | Glossary On
Versions: 1 2 3 4 5 6 7 8 9 10 11 12 13 14 15 16 17 18 19 20 21 22 23 24
000
FTUS41 KRNK 270520
TAFLYH
TAF
KLYH 270520Z 2706/2806 VRB03KT P6SM SCT200
     FM271000 VRB03KT P6SM BKN070
     FM272000 27006KT P6SM SCT110
     FM280100 00000KT P6SM FEW250=

USA.gov is the U.S. government's official web portal to all federal, state and local government web resources and services.